Airfield :
LOGIN :

Register | Disclaimer

   EN    FR    IT 

 










Legend :    VFR   Marginal VFR   IFR   Intensive IFR   Very Intensive IFR
Visi :
Ceiling :
>= 8 km
>= 3000ft
5 to 8 km
1000 to 3000 ft
1500m to 5 km
500 to 1000 ft
800 to 1500m
200 to 500 ft
< 800m
< 200 ft
Symbols :   Thunderstorms  Fog  Heavy snow  Heavy precipitations  Wind > 20 kt
SIGMETs :     Misc.  Thunderstorms  Icing  Turbulence  Mountain Waves  Volcanic Ashes






- Airport Elevation : 392 ft
- IATA code : CDG


LFPG - Paris-Aeroport Charles De Gaulle

CURRENT METAR :
  • 300030Z 29005KT CAVOK 13/11 Q1010 NOSIG

EXPIRED METARs :
  • 300000Z 31008KT 9999 BKN031 BKN066 13/11 Q1010 NOSIG
  • 292330Z 31007KT 9999 SCT013 BKN025 14/12 Q1010 NOSIG
  • 292300Z 31009KT 280V340 9999 FEW005 SCT009 BKN019 15/14 Q1010 NOSIG
  • 292230Z 30006KT 9999 -RA FEW004 BKN006 BKN046 15/14 Q1010 TEMPO BKN004
  • 292200Z 28005KT 9999 FEW009 BKN056 15/14 Q1010 NOSIG
  • 292130Z 27004KT 9999 FEW009 BKN061 15/14 Q1009 NOSIG
  • 292100Z 31004KT 9999 FEW046 BKN066 15/14 Q1009 NOSIG
  • 292030Z 33006KT 9999 FEW008 BKN056 15/14 Q1009 NOSIG
  • 292000Z 32005KT 9999 SCT008 BKN020 BKN026 15/15 Q1009 NOSIG

TAF TAF LFPG
Valid from the 30 at 00:00 until the 31 at 06:00 UTC


292300Z 3000/3106 29008KT 9999 BKN030 TX16/3012Z TN12/3005Z
TEMPO 3010/3019 SCT030TCU
TEMPO 3010/3015 4000 -SHRA BKN030TCU
PROB40
TEMPO 3011/3015 30015G25KT 2500 SHRA BKN025CB
PROB30
TEMPO 3012/3015 1500 TSGR BKN020CB
BECMG 3020/3022 CAVOK
ATIS : +33 1 48 62 10 92



MET'MAP, your aeronautical weather chart ! - Copyright ORBIFLY December 2007 - Disclaimer

ORBIFLY MET'MAP TEAM :

Programming & Development : Alexandra Zaïnal
Original concept : Baudouin d'Aumeries
Technical & hardware support : Manuel Goepfert
Assistance : Marc-Olivier Méhu




SOURCES & CREDITS :

   NOAA